createdAt,value
2023-01-01T00:00:31.108Z,67.98
2023-01-01T00:03:16.536Z,68.09
2023-01-01T00:06:01.406Z,68.91
2023-01-01T00:08:46.236Z,68.01
2023-01-01T00:11:31.186Z,68.65
2023-01-01T00:14:16.209Z,68.34
2023-01-01T00:17:01.187Z,67.57
2023-01-01T00:19:45.941Z,67.88
2023-01-01T00:25:35.971Z,68.41
2023-01-01T00:28:21.042Z,69.76
2023-01-01T00:31:05.915Z,68.34
2023-01-01T00:33:50.970Z,67.82
2023-01-01T00:36:35.833Z,68.44
2023-01-01T00:39:20.895Z,68.75
2023-01-01T00:42:05.657Z,68.14
2023-01-01T00:44:50.545Z,67.64
2023-01-01T00:47:35.288Z,67.78
2023-01-01T00:50:20.175Z,69.08
2023-01-01T00:53:05.133Z,67.95
2023-01-01T00:55:49.984Z,67.53
2023-01-01T00:58:34.830Z,67.74
2023-01-01T01:01:19.728Z,68.26
2023-01-01T01:04:04.628Z,67.39
2023-01-01T01:06:49.380Z,66.60
2023-01-01T01:09:34.337Z,67.06
2023-01-01T01:12:19.283Z,66.65
2023-01-01T01:15:04.125Z,68.70
2023-01-01T01:17:49.077Z,68.59
2023-01-01T01:20:33.855Z,67.90
2023-01-01T01:23:18.766Z,68.81
2023-01-01T01:26:03.477Z,67.94
2023-01-01T01:28:49.940Z,67.59
2023-01-01T01:31:35.549Z,67.29
2023-01-01T01:34:27.155Z,67.78
2023-01-01T01:37:12.858Z,67.48
2023-01-01T01:39:57.857Z,68.31
2023-01-01T01:42:42.611Z,66.73
2023-01-01T01:45:33.166Z,67.60
2023-01-01T01:48:18.581Z,68.76
2023-01-01T01:51:03.402Z,67.97
2023-01-01T01:53:48.366Z,67.49
2023-01-01T01:56:33.106Z,67.83
2023-01-01T01:59:18.101Z,68.29
2023-01-01T02:02:03.132Z,67.90
2023-01-01T02:04:48.245Z,68.53
2023-01-01T02:07:33.032Z,68.49
2023-01-01T02:10:17.729Z,68.30
2023-01-01T02:13:02.632Z,68.88
2023-01-01T02:15:47.564Z,68.95
2023-01-01T02:18:32.492Z,69.53
2023-01-01T02:21:17.385Z,68.54
2023-01-01T02:24:02.274Z,68.89
2023-01-01T02:26:47.182Z,69.09
2023-01-01T02:29:31.964Z,69.65
2023-01-01T02:32:16.879Z,69.86
2023-01-01T02:35:01.759Z,69.72
2023-01-01T02:37:46.699Z,69.50
2023-01-01T02:40:31.728Z,69.78
2023-01-01T02:43:21.509Z,68.73
2023-01-01T02:46:09.777Z,69.73
2023-01-01T02:48:54.463Z,69.43
2023-01-01T02:51:39.456Z,69.48
2023-01-01T02:54:24.421Z,69.78
2023-01-01T02:57:09.245Z,69.22
2023-01-01T02:59:54.440Z,69.16
2023-01-01T03:02:41.682Z,69.20
2023-01-01T03:05:30.100Z,68.80
2023-01-01T03:08:15.051Z,68.96
2023-01-01T03:10:59.824Z,69.08
2023-01-01T03:13:44.680Z,69.65
2023-01-01T03:16:29.481Z,68.80
2023-01-01T03:19:14.469Z,69.96
2023-01-01T03:21:59.356Z,69.67
2023-01-01T03:24:44.244Z,69.22
2023-01-01T03:27:29.210Z,69.89
2023-01-01T03:30:14.070Z,70.43
2023-01-01T03:32:59.162Z,70.85
2023-01-01T03:35:43.958Z,69.66
2023-01-01T03:38:28.919Z,70.92
2023-01-01T03:41:13.759Z,70.27
2023-01-01T03:43:58.708Z,70.12
2023-01-01T03:46:43.588Z,69.79
2023-01-01T03:49:28.333Z,69.21
2023-01-01T03:52:13.286Z,70.69
2023-01-01T03:54:59.215Z,68.93
2023-01-01T03:57:44.673Z,69.02
2023-01-01T04:00:29.442Z,68.97
2023-01-01T04:03:14.472Z,68.57
2023-01-01T04:05:59.247Z,68.40
2023-01-01T04:08:44.190Z,70.32
2023-01-01T04:11:28.985Z,69.27
2023-01-01T04:14:13.933Z,68.49
2023-01-01T04:16:58.887Z,69.05
2023-01-01T04:19:43.760Z,69.14
2023-01-01T04:22:28.890Z,69.01
2023-01-01T04:25:13.732Z,68.07
2023-01-01T04:27:58.700Z,68.38
2023-01-01T04:33:27.678Z,68.63
2023-01-01T04:36:12.492Z,69.02
2023-01-01T04:38:57.357Z,68.41
2023-01-01T04:41:42.362Z,69.31
2023-01-01T04:44:27.115Z,69.69
2023-01-01T04:47:12.068Z,69.65
2023-01-01T04:49:56.960Z,68.91
2023-01-01T04:52:41.899Z,67.82
2023-01-01T04:55:26.782Z,68.84
2023-01-01T04:58:11.750Z,68.97
2023-01-01T05:00:56.728Z,68.55
2023-01-01T05:03:41.437Z,68.50
2023-01-01T05:06:26.341Z,67.17
2023-01-01T05:09:11.175Z,67.42
2023-01-01T05:11:56.200Z,68.43
2023-01-01T05:14:40.990Z,67.87
2023-01-01T05:17:25.954Z,67.96
2023-01-01T05:20:10.772Z,68.82
2023-01-01T05:22:55.579Z,66.63
2023-01-01T05:25:40.337Z,65.19
2023-01-01T05:28:25.153Z,65.08
2023-01-01T05:31:10.186Z,65.57
2023-01-01T05:33:54.987Z,65.49
2023-01-01T05:36:39.887Z,64.94
2023-01-01T05:39:24.787Z,65.46
2023-01-01T05:42:09.676Z,65.59
2023-01-01T05:44:54.508Z,65.98
2023-01-01T05:47:39.470Z,67.68
2023-01-01T05:50:24.337Z,67.11
2023-01-01T05:53:09.254Z,66.37
2023-01-01T05:55:54.091Z,65.89
2023-01-01T05:58:38.972Z,67.23
2023-01-01T06:01:24.145Z,66.31
2023-01-01T06:04:08.957Z,66.88
2023-01-01T06:06:53.881Z,67.27
2023-01-01T06:09:38.659Z,67.68
2023-01-01T06:12:23.437Z,66.90
2023-01-01T06:15:08.219Z,67.47
2023-01-01T06:17:53.260Z,66.80
2023-01-01T06:20:38.262Z,67.48
2023-01-01T06:23:23.205Z,67.67
2023-01-01T06:26:08.271Z,67.43
2023-01-01T06:28:53.111Z,67.44
2023-01-01T06:31:40.839Z,68.02
2023-01-01T06:34:25.966Z,68.14
2023-01-01T06:37:10.954Z,67.49
2023-01-01T06:39:56.018Z,67.56
2023-01-01T06:42:40.855Z,67.64
2023-01-01T06:45:25.781Z,66.48
2023-01-01T06:48:10.720Z,67.24
2023-01-01T06:50:55.691Z,69.03
2023-01-01T06:53:40.537Z,68.25
2023-01-01T06:56:25.359Z,68.67
2023-01-01T06:59:10.221Z,68.56
2023-01-01T07:01:55.155Z,68.16
2023-01-01T07:04:40.712Z,68.72
2023-01-01T07:07:27.040Z,67.19
2023-01-01T07:10:13.871Z,68.40
2023-01-01T07:12:58.759Z,68.40
2023-01-01T07:15:43.647Z,68.63
2023-01-01T07:18:28.455Z,68.64
2023-01-01T07:21:13.296Z,68.28
2023-01-01T07:23:58.258Z,68.03
2023-01-01T07:26:43.072Z,68.28
2023-01-01T07:29:28.049Z,67.37
2023-01-01T07:32:12.896Z,67.21
2023-01-01T07:34:57.843Z,67.54
2023-01-01T07:37:42.753Z,66.91
2023-01-01T07:40:27.558Z,67.31
2023-01-01T07:43:12.518Z,68.14
2023-01-01T07:45:57.344Z,66.54
2023-01-01T07:48:42.220Z,67.12
2023-01-01T07:51:27.102Z,67.39
2023-01-01T07:54:11.992Z,67.49
2023-01-01T07:56:56.792Z,66.95
2023-01-01T07:59:41.924Z,66.95
2023-01-01T08:02:26.931Z,67.51
2023-01-01T08:05:12.250Z,67.34
2023-01-01T08:07:57.144Z,67.34
2023-01-01T08:10:41.921Z,68.24
2023-01-01T08:13:26.921Z,68.79
2023-01-01T08:16:11.868Z,67.77
2023-01-01T08:18:57.126Z,68.79
2023-01-01T08:21:41.945Z,68.14
2023-01-01T08:24:26.821Z,68.57
2023-01-01T08:27:11.673Z,68.54
2023-01-01T08:29:56.583Z,67.23
2023-01-01T08:32:41.565Z,66.21
2023-01-01T08:35:26.462Z,67.13
2023-01-01T08:38:11.358Z,67.11
2023-01-01T08:40:56.186Z,66.40
2023-01-01T08:43:41.054Z,66.37
2023-01-01T08:46:25.834Z,66.29
2023-01-01T08:49:11.170Z,66.85
2023-01-01T08:51:56.026Z,66.37
2023-01-01T08:54:40.958Z,65.64
2023-01-01T08:57:25.761Z,64.99
2023-01-01T09:00:10.640Z,65.73
2023-01-01T09:02:55.770Z,65.99
2023-01-01T09:05:40.897Z,65.82
2023-01-01T09:08:25.688Z,64.34
2023-01-01T09:11:10.509Z,64.04
2023-01-01T09:13:55.330Z,63.34
2023-01-01T09:16:44.169Z,64.84
2023-01-01T09:19:29.649Z,63.39
2023-01-01T09:22:14.726Z,64.18
2023-01-01T09:24:59.603Z,62.73
2023-01-01T09:27:44.483Z,62.46
2023-01-01T09:30:29.529Z,62.06
2023-01-01T09:33:14.353Z,61.59
2023-01-01T09:35:59.266Z,62.54
2023-01-01T09:38:44.194Z,62.62
2023-01-01T09:41:29.048Z,61.35
2023-01-01T09:44:13.803Z,61.65
2023-01-01T09:46:58.623Z,60.40
2023-01-01T09:52:28.662Z,60.59
2023-01-01T09:55:13.493Z,60.19
2023-01-01T09:57:58.393Z,60.04
2023-01-01T10:00:43.311Z,59.69
2023-01-01T10:03:28.555Z,56.90
2023-01-01T10:06:13.602Z,59.09
2023-01-01T10:08:58.482Z,58.20
2023-01-01T10:11:43.477Z,58.04
2023-01-01T10:14:28.281Z,57.29
2023-01-01T10:17:13.546Z,56.34
2023-01-01T10:19:58.847Z,56.97
2023-01-01T10:22:43.642Z,57.12
2023-01-01T10:25:28.576Z,55.08
2023-01-01T10:28:13.361Z,55.21
2023-01-01T10:30:58.226Z,54.74
2023-01-01T10:33:43.097Z,54.62
2023-01-01T10:36:28.105Z,53.75
2023-01-01T10:39:13.052Z,53.82
2023-01-01T10:41:57.882Z,53.35
2023-01-01T10:44:42.955Z,55.88
2023-01-01T10:47:27.803Z,53.92
2023-01-01T10:50:12.683Z,54.53
2023-01-01T10:52:57.628Z,53.05
2023-01-01T10:55:42.458Z,54.30
2023-01-01T10:58:27.345Z,53.54
2023-01-01T11:01:12.394Z,52.28
2023-01-01T11:03:57.777Z,53.13
2023-01-01T11:06:42.696Z,50.60
2023-01-01T11:09:27.620Z,47.44
2023-01-01T11:12:38.316Z,43.99
2023-01-01T11:15:17.672Z,44.88
2023-01-01T11:18:02.630Z,45.24
2023-01-01T11:20:47.490Z,47.17
2023-01-01T11:23:32.391Z,43.61
2023-01-01T11:26:17.185Z,45.07
2023-01-01T11:29:02.083Z,45.29
2023-01-01T11:31:46.805Z,45.65
2023-01-01T11:34:31.766Z,45.19
2023-01-01T11:37:16.654Z,44.15
2023-01-01T11:40:01.501Z,42.12
2023-01-01T11:42:47.135Z,42.57
2023-01-01T11:45:37.427Z,44.53
2023-01-01T11:48:22.769Z,44.31
2023-01-01T11:51:07.601Z,43.01
2023-01-01T11:53:52.512Z,39.84
2023-01-01T11:56:37.405Z,39.93
2023-01-01T11:59:22.228Z,41.59
2023-01-01T12:02:07.234Z,38.61
2023-01-01T12:04:52.087Z,42.03
2023-01-01T12:07:37.042Z,40.80
2023-01-01T12:10:21.895Z,40.30
2023-01-01T12:13:06.719Z,41.21
2023-01-01T12:15:51.766Z,41.02
2023-01-01T12:18:36.755Z,43.11
2023-01-01T12:21:21.591Z,41.55
2023-01-01T12:24:06.427Z,40.54
2023-01-01T12:26:51.369Z,40.29
2023-01-01T12:29:36.243Z,40.58
2023-01-01T12:32:21.141Z,38.73
2023-01-01T12:35:06.008Z,41.43
2023-01-01T12:37:50.817Z,41.07
2023-01-01T12:40:35.686Z,40.21
2023-01-01T12:43:20.534Z,41.03
2023-01-01T12:46:05.480Z,40.87
2023-01-01T12:48:50.186Z,40.62
2023-01-01T12:51:35.366Z,41.91
2023-01-01T12:54:20.534Z,41.42
2023-01-01T12:57:05.329Z,40.28
2023-01-01T12:59:50.160Z,38.97
2023-01-01T13:02:35.030Z,39.02
2023-01-01T13:05:20.425Z,40.17
2023-01-01T13:08:05.327Z,39.72
2023-01-01T13:10:50.257Z,39.11
2023-01-01T13:13:35.019Z,39.54
2023-01-01T13:16:20.066Z,40.62
2023-01-01T13:19:04.890Z,39.25
2023-01-01T13:21:49.737Z,39.60
2023-01-01T13:24:34.652Z,39.38
2023-01-01T13:27:19.512Z,42.17
2023-01-01T13:30:04.405Z,41.12
2023-01-01T13:32:49.277Z,42.67
2023-01-01T13:35:34.150Z,41.71
2023-01-01T13:38:18.896Z,40.02
2023-01-01T13:41:03.782Z,41.04
2023-01-01T13:43:48.535Z,40.89
2023-01-01T13:46:33.427Z,41.09
2023-01-01T13:49:18.804Z,41.40
2023-01-01T13:52:05.888Z,40.01
2023-01-01T13:54:52.609Z,39.61
2023-01-01T13:57:37.485Z,40.32
2023-01-01T14:00:22.441Z,40.40
2023-01-01T14:03:08.534Z,39.86
2023-01-01T14:05:53.609Z,40.19
2023-01-01T14:08:38.569Z,40.24
2023-01-01T14:11:23.314Z,39.01
2023-01-01T14:14:08.378Z,38.60
2023-01-01T14:16:53.351Z,39.18
2023-01-01T14:19:38.231Z,37.60
2023-01-01T14:22:23.193Z,37.62
2023-01-01T14:25:09.581Z,38.30
2023-01-01T14:27:54.950Z,39.39
2023-01-01T14:30:39.776Z,37.43
2023-01-01T14:33:24.679Z,37.08
2023-01-01T14:36:09.453Z,36.75
2023-01-01T14:38:54.212Z,36.93
2023-01-01T14:41:39.122Z,35.81
2023-01-01T14:44:23.978Z,38.00
2023-01-01T14:47:08.969Z,36.49
2023-01-01T14:49:53.719Z,37.37
2023-01-01T14:52:38.824Z,38.54
2023-01-01T14:55:23.694Z,39.06
2023-01-01T14:58:08.625Z,39.27
2023-01-01T15:00:53.543Z,39.61
2023-01-01T15:03:38.430Z,42.41
2023-01-01T15:06:23.573Z,41.33
2023-01-01T15:09:08.703Z,42.33
2023-01-01T15:11:53.632Z,43.32
2023-01-01T15:14:38.548Z,43.34
2023-01-01T15:17:23.274Z,43.31
2023-01-01T15:20:08.142Z,44.28
2023-01-01T15:22:53.625Z,45.24
2023-01-01T15:25:38.505Z,45.55
2023-01-01T15:28:23.292Z,47.22
2023-01-01T15:31:08.268Z,46.69
2023-01-01T15:33:53.142Z,48.86
2023-01-01T15:36:38.141Z,49.10
2023-01-01T15:39:23.051Z,49.14
2023-01-01T15:42:08.036Z,49.26
2023-01-01T15:44:52.974Z,48.52
2023-01-01T15:47:37.794Z,50.98
2023-01-01T15:50:22.655Z,50.94
2023-01-01T15:53:07.572Z,51.20
2023-01-01T15:55:52.458Z,50.62
2023-01-01T15:58:37.255Z,50.53
2023-01-01T16:01:22.333Z,50.27
2023-01-01T16:04:07.765Z,51.62
2023-01-01T16:06:52.650Z,50.72
2023-01-01T16:09:37.364Z,51.10
2023-01-01T16:12:22.374Z,51.29
2023-01-01T16:15:07.267Z,52.15
2023-01-01T16:17:52.171Z,51.37
2023-01-01T16:20:37.014Z,51.58
2023-01-01T16:23:21.860Z,51.21
2023-01-01T16:26:06.801Z,51.49
2023-01-01T16:28:51.767Z,53.03
2023-01-01T16:31:36.777Z,51.51
2023-01-01T16:34:21.543Z,53.82
2023-01-01T16:37:06.664Z,52.27
2023-01-01T16:39:51.469Z,54.08
2023-01-01T16:42:36.478Z,53.54
2023-01-01T16:45:21.477Z,52.35
2023-01-01T16:48:06.231Z,52.90
2023-01-01T16:50:51.266Z,53.66
2023-01-01T16:53:36.143Z,53.31
2023-01-01T16:56:21.105Z,54.05
2023-01-01T16:59:06.009Z,53.02
2023-01-01T17:01:51.056Z,53.93
2023-01-01T17:04:36.341Z,53.38
2023-01-01T17:07:21.172Z,54.97
2023-01-01T17:10:06.089Z,55.06
2023-01-01T17:12:50.795Z,54.28
2023-01-01T17:15:35.755Z,54.28
2023-01-01T17:18:23.974Z,53.62
2023-01-01T17:21:24.636Z,54.34
2023-01-01T17:24:09.611Z,54.78
2023-01-01T17:26:54.396Z,54.64
2023-01-01T17:29:39.303Z,54.65
2023-01-01T17:32:24.210Z,54.04
2023-01-01T17:35:09.174Z,54.12
2023-01-01T17:37:54.042Z,55.37
2023-01-01T17:40:38.811Z,54.65
2023-01-01T17:43:23.729Z,55.11
2023-01-01T17:46:08.859Z,55.47
2023-01-01T17:48:53.848Z,55.51
2023-01-01T17:51:38.611Z,54.75
2023-01-01T17:54:23.656Z,55.66
2023-01-01T17:57:08.352Z,55.59
2023-01-01T17:59:53.376Z,56.38
2023-01-01T18:02:38.346Z,55.73
2023-01-01T18:05:23.593Z,56.61
2023-01-01T18:08:08.458Z,55.68
2023-01-01T18:10:53.367Z,55.55
2023-01-01T18:13:38.244Z,55.44
2023-01-01T18:16:23.097Z,56.64
2023-01-01T18:19:08.030Z,56.36
2023-01-01T18:21:52.740Z,57.33
2023-01-01T18:24:37.578Z,57.10
2023-01-01T18:27:22.526Z,56.19
2023-01-01T18:30:07.459Z,57.41
2023-01-01T18:32:52.502Z,58.33
2023-01-01T18:35:37.305Z,57.13
2023-01-01T18:38:22.237Z,56.69
2023-01-01T18:41:07.141Z,56.92
2023-01-01T18:43:52.296Z,56.41
2023-01-01T18:46:37.147Z,58.00
2023-01-01T18:49:22.042Z,57.75
2023-01-01T18:52:06.966Z,58.90
2023-01-01T18:54:51.708Z,57.71
2023-01-01T18:57:36.693Z,57.67
2023-01-01T19:00:21.432Z,58.46
2023-01-01T19:03:06.455Z,58.35
2023-01-01T19:05:51.257Z,58.01
2023-01-01T19:08:36.413Z,59.00
2023-01-01T19:11:21.383Z,58.59
2023-01-01T19:14:06.179Z,59.78
2023-01-01T19:16:51.033Z,59.95
2023-01-01T19:19:35.917Z,60.47
2023-01-01T19:22:20.797Z,59.79
2023-01-01T19:25:05.644Z,59.93
2023-01-01T19:27:53.524Z,61.52
2023-01-01T19:30:38.536Z,60.85
2023-01-01T19:33:23.368Z,59.78
2023-01-01T19:36:08.312Z,61.00
2023-01-01T19:38:53.130Z,59.52
2023-01-01T19:41:38.011Z,60.19
2023-01-01T19:44:25.195Z,60.01
2023-01-01T19:47:10.365Z,59.88
2023-01-01T19:49:55.861Z,60.11
2023-01-01T19:52:41.241Z,61.66
2023-01-01T19:55:26.101Z,60.79
2023-01-01T19:58:10.889Z,59.82
2023-01-01T20:00:55.835Z,59.43
2023-01-01T20:03:54.089Z,58.95
2023-01-01T20:06:40.251Z,57.52
2023-01-01T20:09:25.060Z,58.04
2023-01-01T20:12:09.910Z,58.60
2023-01-01T20:14:54.749Z,57.80
2023-01-01T20:17:39.689Z,57.69
2023-01-01T20:20:24.588Z,58.32
2023-01-01T20:23:09.520Z,57.70
2023-01-01T20:25:54.251Z,58.87
2023-01-01T20:28:39.067Z,58.26
2023-01-01T20:31:24.015Z,59.17
2023-01-01T20:34:08.724Z,58.70
2023-01-01T20:36:53.765Z,59.64
2023-01-01T20:39:38.503Z,59.13
2023-01-01T20:42:23.559Z,59.83
2023-01-01T20:45:08.423Z,59.52
2023-01-01T20:47:53.304Z,59.50
2023-01-01T20:50:38.153Z,59.34
2023-01-01T20:53:23.053Z,59.15
2023-01-01T20:56:07.997Z,59.11
2023-01-01T20:58:58.993Z,59.77
2023-01-01T21:01:45.204Z,59.38
2023-01-01T21:04:30.611Z,59.08
2023-01-01T21:07:15.423Z,58.79
2023-01-01T21:10:00.360Z,60.01
2023-01-01T21:12:45.185Z,59.17
2023-01-01T21:15:30.082Z,59.78
2023-01-01T21:18:15.146Z,60.21
2023-01-01T21:20:59.988Z,59.81
2023-01-01T21:23:44.903Z,60.11
2023-01-01T21:26:29.742Z,60.45
2023-01-01T21:29:14.623Z,60.72
2023-01-01T21:31:59.880Z,58.90
2023-01-01T21:34:46.685Z,59.45
2023-01-01T21:37:31.501Z,59.44
2023-01-01T21:40:16.381Z,59.21
2023-01-01T21:43:01.347Z,58.49
2023-01-01T21:45:46.230Z,59.08
2023-01-01T21:48:30.961Z,58.41
2023-01-01T21:51:15.859Z,59.13
2023-01-01T21:54:00.816Z,58.83
2023-01-01T21:56:45.675Z,57.97
2023-01-01T21:59:30.589Z,58.21
2023-01-01T22:02:15.626Z,57.65
2023-01-01T22:05:00.796Z,58.47
2023-01-01T22:08:01.034Z,57.43
2023-01-01T22:10:46.059Z,57.70
2023-01-01T22:13:31.050Z,57.81
2023-01-01T22:16:15.909Z,57.68
2023-01-01T22:19:01.068Z,57.62
2023-01-01T22:21:45.933Z,58.00
2023-01-01T22:24:30.825Z,58.85
2023-01-01T22:27:15.743Z,56.93
2023-01-01T22:30:00.541Z,56.97
2023-01-01T22:32:45.476Z,56.58
2023-01-01T22:35:30.254Z,55.50
2023-01-01T22:38:15.074Z,57.32
2023-01-01T22:41:00.000Z,56.46
2023-01-01T22:43:44.896Z,55.85
2023-01-01T22:46:29.742Z,56.12
2023-01-01T22:49:14.653Z,55.22
2023-01-01T22:51:59.706Z,55.06
2023-01-01T22:54:44.612Z,55.33
2023-01-01T22:57:29.741Z,54.30
2023-01-01T23:00:14.507Z,54.02
2023-01-01T23:02:59.465Z,53.94
2023-01-01T23:05:44.609Z,53.48
2023-01-01T23:08:29.595Z,54.70
2023-01-01T23:11:14.442Z,54.99
2023-01-01T23:13:59.339Z,54.11
2023-01-01T23:16:44.358Z,55.67
2023-01-01T23:19:29.184Z,54.54
2023-01-01T23:22:13.995Z,54.68
2023-01-01T23:24:58.845Z,54.63
2023-01-01T23:27:43.732Z,54.01
2023-01-01T23:30:28.539Z,53.57
2023-01-01T23:33:13.370Z,52.58
2023-01-01T23:35:58.385Z,51.77
2023-01-01T23:38:43.213Z,51.93
2023-01-01T23:41:28.129Z,51.75
2023-01-01T23:44:12.985Z,51.60
2023-01-01T23:46:57.807Z,51.82
2023-01-01T23:49:42.620Z,51.57
2023-01-01T23:52:27.578Z,52.45
2023-01-01T23:55:12.489Z,51.78
2023-01-01T23:57:57.408Z,53.04
